Terminal Aerodrome Forecast
Issued by NWS Springfield, MO

Home | Current Version | Previous Version | Text Only | Print | Product List | Glossary On
Versions: 1 2 3 4 5 6 7 8 9 10 11 12 13 14 15 16 17 18 19 20 21
000
FTUS43 KSGF 240100 AAA
TAFSGF
TAF AMD
KSGF 240126Z 2401/2424 18005KT 5SM BR SCT025 BKN050
     FM240700 20004KT 2SM BR FEW007 OVC015
     FM241500 21007KT P6SM SKC=

USA.gov is the U.S. government's official web portal to all federal, state and local government web resources and services.